Time;durP1;ratioP1;P1;durP2;ratioP2;P2;SDS_P1;SDS_P2;PMS_P1;PMS_P2;Temp;Humidity;BMP_temperature;BMP_pressure;BME280_temperature;BME280_humidity;BME280_pressure;Samples;Min_cycle;Max_cycle;Signal;HPM_P1;HPM_P2
2021/12/11 00:02:08;;;;;;;30.03;18.57;;;;;;;;;;5071409;28;20199;-78
2021/12/11 00:04:35;;;;;;;27.80;17.30;;;;;;;;;;5089353;28;20176;-76
2021/12/11 00:07:02;;;;;;;27.33;18.67;;;;;;;;;;5080598;28;20421;-76
2021/12/11 00:09:30;;;;;;;23.83;16.57;;;;;;;;;;5088735;28;20227;-76
2021/12/11 00:11:58;;;;;;;28.43;17.67;;;;;;;;;;5090931;28;20226;-76
2021/12/11 00:14:23;;;;;;;30.37;17.57;;;;;;;;;;5088582;28;20679;-76
2021/12/11 00:16:49;;;;;;;29.83;18.40;;;;;;;;;;5091523;28;20185;-75
2021/12/11 00:19:14;;;;;;;22.83;17.00;;;;;;;;;;5092932;28;20645;-76
2021/12/11 00:21:40;;;;;;;29.45;17.58;;;;;;;;;;5090270;28;20200;-76
2021/12/11 00:24:13;;;;;;;26.23;16.77;;;;;;;;;;5089194;28;20259;-76
2021/12/11 00:26:44;;;;;;;22.73;16.47;;;;;;;;;;5090375;28;20191;-76
2021/12/11 00:29:11;;;;;;;26.27;17.13;;;;;;;;;;5089290;28;20200;-76
2021/12/11 00:31:38;;;;;;;23.47;15.53;;;;;;;;;;5092909;28;20866;-75
2021/12/11 00:34:09;;;;;;;20.83;15.40;;;;;;;;;;5086585;28;20172;-76
2021/12/11 00:36:34;;;;;;;26.20;16.97;;;;;;;;;;5094501;28;20172;-76
2021/12/11 00:39:12;;;;;;;25.87;16.77;;;;;;;;;;5090953;28;20188;-76
2021/12/11 00:41:38;;;;;;;28.97;17.73;;;;;;;;;;5075537;28;20233;-76
2021/12/11 00:44:03;;;;;;;26.93;16.33;;;;;;;;;;5092436;28;20218;-76
2021/12/11 00:46:31;;;;;;;23.57;16.00;;;;;;;;;;5096532;28;20202;-77
2021/12/11 00:49:06;;;;;;;22.67;15.67;;;;;;;;;;5084821;28;20311;-78
2021/12/11 00:51:31;;;;;;;25.10;15.20;;;;;;;;;;5092047;28;20296;-76
2021/12/11 00:53:58;;;;;;;24.53;16.20;;;;;;;;;;5076042;28;20667;-76
2021/12/11 00:56:25;;;;;;;24.63;17.00;;;;;;;;;;5094183;28;20550;-76
2021/12/11 00:58:52;;;;;;;24.07;15.50;;;;;;;;;;5088810;28;20184;-77
2021/12/11 01:01:19;;;;;;;24.43;16.60;;;;;;;;;;5095802;28;20207;-77
2021/12/11 01:03:53;;;;;;;24.53;16.50;;;;;;;;;;5088642;28;20188;-76
2021/12/11 01:06:24;;;;;;;31.27;16.70;;;;;;;;;;5072455;28;20859;-77
2021/12/11 01:08:56;;;;;;;25.13;16.90;;;;;;;;;;5084449;28;20207;-77
2021/12/11 01:11:23;;;;;;;25.57;16.87;;;;;;;;;;5080137;28;20200;-76
2021/12/11 01:13:52;;;;;;;29.67;18.17;;;;;;;;;;5091548;28;20259;-77
2021/12/11 01:16:17;;;;;;;30.83;17.33;;;;;;;;;;5092883;28;20171;-77
2021/12/11 01:18:45;;;;;;;27.30;17.87;;;;;;;;;;5090712;28;20183;-76
2021/12/11 01:26:34;;;;;;;33.80;19.83;;;;;;;;;;5093623;28;20176;-76
2021/12/11 01:29:00;;;;;;;27.90;17.90;;;;;;;;;;5080947;28;20354;-77
2021/12/11 01:31:27;;;;;;;30.47;18.50;;;;;;;;;;5089129;28;20237;-78
2021/12/11 01:33:53;;;;;;;28.23;18.20;;;;;;;;;;5080288;28;20295;-77
2021/12/11 01:36:18;;;;;;;32.53;20.57;;;;;;;;;;5090116;28;20668;-75
2021/12/11 01:38:44;;;;;;;27.73;18.50;;;;;;;;;;5090385;28;20180;-76
2021/12/11 01:41:12;;;;;;;27.53;17.27;;;;;;;;;;5088913;28;20200;-75
2021/12/11 01:43:38;;;;;;;29.13;18.50;;;;;;;;;;5087085;28;20318;-78
2021/12/11 01:46:04;;;;;;;29.33;18.97;;;;;;;;;;5083926;28;20184;-78
2021/12/11 01:48:32;;;;;;;28.73;18.40;;;;;;;;;;5068713;28;20222;-76
2021/12/11 01:51:03;;;;;;;29.60;18.13;;;;;;;;;;5091926;28;20200;-75
2021/12/11 01:53:37;;;;;;;28.93;19.13;;;;;;;;;;5087932;28;20175;-75
2021/12/11 01:56:09;;;;;;;26.70;17.87;;;;;;;;;;5066700;28;20187;-78
2021/12/11 01:58:43;;;;;;;28.93;17.73;;;;;;;;;;5089542;28;20172;-76
2021/12/11 02:01:17;;;;;;;28.53;18.03;;;;;;;;;;5092991;28;20199;-76
2021/12/11 02:03:43;;;;;;;28.73;18.20;;;;;;;;;;5092299;28;20270;-76
2021/12/11 02:06:08;;;;;;;32.43;20.10;;;;;;;;;;5092569;28;20254;-76
2021/12/11 02:08:35;;;;;;;28.67;18.87;;;;;;;;;;5072398;28;20510;-76
2021/12/11 02:11:03;;;;;;;29.87;18.77;;;;;;;;;;5089518;28;20302;-76
2021/12/11 02:13:39;;;;;;;31.70;18.67;;;;;;;;;;5094486;28;20556;-76
2021/12/11 02:16:05;;;;;;;33.13;17.47;;;;;;;;;;5086451;28;20186;-76
2021/12/11 02:18:36;;;;;;;25.60;17.97;;;;;;;;;;5092826;28;20189;-77
2021/12/11 02:21:07;;;;;;;29.03;18.73;;;;;;;;;;5087051;28;20200;-76
2021/12/11 02:23:33;;;;;;;29.97;18.57;;;;;;;;;;5086202;28;20210;-78
2021/12/11 02:26:16;;;;;;;30.97;19.90;;;;;;;;;;5093095;28;20192;-77
2021/12/11 02:28:50;;;;;;;31.37;18.90;;;;;;;;;;5088815;28;20689;-77
2021/12/11 02:31:26;;;;;;;32.17;18.53;;;;;;;;;;5106695;22;20688;-72
2021/12/11 02:33:58;;;;;;;29.73;17.80;;;;;;;;;;5092373;28;20182;-72
2021/12/11 02:36:28;;;;;;;29.27;18.80;;;;;;;;;;5091447;28;20173;-72
2021/12/11 02:39:05;;;;;;;35.30;20.63;;;;;;;;;;5089373;28;20645;-72
2021/12/11 02:41:31;;;;;;;28.57;17.37;;;;;;;;;;5080072;28;20199;-72
2021/12/11 02:43:58;;;;;;;31.97;19.50;;;;;;;;;;5049712;28;20191;-73
2021/12/11 02:46:23;;;;;;;28.57;18.67;;;;;;;;;;5081765;28;20180;-72
2021/12/11 02:49:09;;;;;;;30.03;18.23;;;;;;;;;;5072783;28;20246;-72
2021/12/11 02:51:37;;;;;;;28.83;17.60;;;;;;;;;;5057604;28;20677;-73
2021/12/11 02:54:08;;;;;;;33.50;18.97;;;;;;;;;;5071489;28;20571;-72
2021/12/11 02:56:37;;;;;;;29.17;17.90;;;;;;;;;;5071991;28;20180;-72
2021/12/11 02:59:10;;;;;;;31.37;19.93;;;;;;;;;;5071409;28;20208;-72
2021/12/11 03:01:38;;;;;;;32.00;19.37;;;;;;;;;;5054936;28;20197;-72
2021/12/11 03:04:09;;;;;;;32.77;19.70;;;;;;;;;;5069694;28;20177;-73
2021/12/11 03:06:40;;;;;;;33.77;19.83;;;;;;;;;;5071812;28;20185;-72
2021/12/11 03:09:06;;;;;;;30.03;19.40;;;;;;;;;;5073915;28;20610;-74
2021/12/11 03:11:32;;;;;;;36.57;21.00;;;;;;;;;;5070987;28;20235;-73
2021/12/11 03:13:58;;;;;;;32.33;20.00;;;;;;;;;;5070100;28;20165;-71
2021/12/11 03:16:25;;;;;;;36.17;19.97;;;;;;;;;;5070435;28;20181;-72
2021/12/11 03:18:51;;;;;;;31.57;21.17;;;;;;;;;;5071173;28;20259;-72
2021/12/11 03:21:16;;;;;;;34.47;20.50;;;;;;;;;;5054386;28;20288;-73
2021/12/11 03:23:42;;;;;;;37.77;21.53;;;;;;;;;;5055475;28;20563;-72
2021/12/11 03:26:08;;;;;;;35.77;21.90;;;;;;;;;;5067289;28;20189;-73
2021/12/11 03:28:33;;;;;;;35.07;20.17;;;;;;;;;;5073300;28;20243;-73
2021/12/11 03:31:01;;;;;;;37.00;22.47;;;;;;;;;;5075695;28;20653;-72
2021/12/11 03:33:28;;;;;;;36.40;21.83;;;;;;;;;;5073812;28;20177;-72
2021/12/11 03:35:55;;;;;;;39.90;22.57;;;;;;;;;;5074340;28;20197;-71
2021/12/11 03:38:20;;;;;;;41.13;23.80;;;;;;;;;;5071082;28;20546;-71
2021/12/11 03:40:46;;;;;;;37.33;22.20;;;;;;;;;;5068405;28;20177;-70
2021/12/11 03:43:13;;;;;;;34.70;21.87;;;;;;;;;;5068376;28;20197;-71
2021/12/11 03:45:40;;;;;;;36.97;22.57;;;;;;;;;;5055312;28;20177;-72
2021/12/11 03:48:25;;;;;;;39.13;21.87;;;;;;;;;;5073376;28;20236;-72
2021/12/11 03:50:51;;;;;;;35.73;22.60;;;;;;;;;;5070149;28;20181;-71
2021/12/11 03:53:18;;;;;;;36.40;23.07;;;;;;;;;;5048009;28;20600;-72
2021/12/11 03:55:53;;;;;;;38.77;22.47;;;;;;;;;;5050990;28;20646;-72
2021/12/11 03:58:18;;;;;;;38.23;21.67;;;;;;;;;;5048707;28;20602;-71
2021/12/11 04:00:52;;;;;;;40.23;21.93;;;;;;;;;;5049792;28;20188;-71
2021/12/11 04:03:25;;;;;;;38.23;20.23;;;;;;;;;;5068477;28;20219;-71
2021/12/11 04:05:52;;;;;;;41.23;22.13;;;;;;;;;;5068372;28;20177;-71
2021/12/11 04:08:19;;;;;;;36.93;20.33;;;;;;;;;;5075015;28;20200;-71
2021/12/11 04:10:45;;;;;;;33.13;20.13;;;;;;;;;;5076303;28;20177;-71
2021/12/11 04:13:11;;;;;;;34.07;20.17;;;;;;;;;;5060205;28;20236;-71
2021/12/11 04:15:38;;;;;;;41.17;20.30;;;;;;;;;;5071318;28;20505;-71
2021/12/11 04:18:04;;;;;;;33.53;20.13;;;;;;;;;;5069242;28;20259;-71
2021/12/11 04:20:30;;;;;;;43.00;20.20;;;;;;;;;;5070207;28;20267;-72
2021/12/11 04:22:56;;;;;;;38.33;21.70;;;;;;;;;;5053327;28;20745;-71
2021/12/11 04:25:23;;;;;;;31.37;18.93;;;;;;;;;;5068165;28;20177;-72
2021/12/11 04:27:48;;;;;;;35.63;20.23;;;;;;;;;;5069123;28;20246;-71
2021/12/11 04:30:14;;;;;;;38.13;20.60;;;;;;;;;;5071375;28;20181;-72
2021/12/11 04:32:40;;;;;;;37.87;21.20;;;;;;;;;;5068454;28;20212;-71
2021/12/11 04:35:06;;;;;;;34.50;19.23;;;;;;;;;;5075753;28;20246;-71
2021/12/11 04:37:32;;;;;;;33.67;20.03;;;;;;;;;;5070689;28;20185;-72
2021/12/11 04:40:02;;;;;;;38.47;19.10;;;;;;;;;;5069493;28;20548;-71
2021/12/11 04:44:55;;;;;;;32.60;19.17;;;;;;;;;;5077283;28;20183;-72
2021/12/11 04:50:13;;;;;;;30.77;17.77;;;;;;;;;;5070367;28;20657;-71
2021/12/11 04:53:25;;;;;;;29.07;17.57;;;;;;;;;;5066814;28;20244;-71
2021/12/11 05:01:29;;;;;;;31.10;19.40;;;;;;;;;;5033353;28;20314;-71
2021/12/11 05:04:14;;;;;;;35.30;18.73;;;;;;;;;;5066566;28;20199;-71
2021/12/11 05:06:58;;;;;;;35.63;18.47;;;;;;;;;;5067876;28;20224;-72
2021/12/11 05:09:35;;;;;;;31.90;19.93;;;;;;;;;;5073897;28;20205;-73
2021/12/11 05:12:45;;;;;;;30.90;18.30;;;;;;;;;;5049242;28;20772;-72
2021/12/11 05:14:51;;;;;;;30.00;19.13;;;;;;;;;;5057412;28;20270;-71
2021/12/11 05:17:17;;;;;;;33.53;19.73;;;;;;;;;;5070922;28;20207;-72
2021/12/11 05:19:43;;;;;;;34.87;19.53;;;;;;;;;;5071744;28;20211;-71
2021/12/11 05:22:08;;;;;;;32.97;20.10;;;;;;;;;;5050759;28;20204;-71
2021/12/11 05:24:35;;;;;;;33.87;20.63;;;;;;;;;;5074978;28;20177;-71
2021/12/11 05:27:01;;;;;;;29.10;19.07;;;;;;;;;;5069860;28;20494;-71
2021/12/11 05:29:27;;;;;;;32.60;19.07;;;;;;;;;;5070295;28;20717;-72
2021/12/11 05:31:52;;;;;;;34.40;17.97;;;;;;;;;;5068100;28;20342;-75
2021/12/11 05:34:17;;;;;;;32.77;19.37;;;;;;;;;;5068912;28;20177;-72
2021/12/11 05:36:42;;;;;;;34.07;19.13;;;;;;;;;;5054184;28;20290;-72
2021/12/11 05:39:10;;;;;;;27.27;17.83;;;;;;;;;;5049559;28;20193;-72
2021/12/11 05:41:36;;;;;;;29.10;19.77;;;;;;;;;;5068868;28;20633;-72
2021/12/11 05:44:01;;;;;;;30.90;17.73;;;;;;;;;;5071644;28;20176;-72
2021/12/11 05:46:27;;;;;;;36.30;19.43;;;;;;;;;;5059942;28;20181;-73
2021/12/11 05:48:52;;;;;;;33.03;18.67;;;;;;;;;;5071940;28;20228;-73
2021/12/11 05:51:21;;;;;;;31.13;17.77;;;;;;;;;;5052942;28;20243;-73
2021/12/11 05:53:47;;;;;;;29.50;17.90;;;;;;;;;;5053978;28;20185;-72
2021/12/11 05:56:13;;;;;;;30.83;17.33;;;;;;;;;;5070986;28;20187;-71
2021/12/11 05:58:47;;;;;;;29.60;18.23;;;;;;;;;;5069597;28;20267;-71
2021/12/11 06:01:20;;;;;;;29.73;16.97;;;;;;;;;;5071586;28;20204;-72
2021/12/11 06:03:46;;;;;;;27.70;16.60;;;;;;;;;;5064880;28;20200;-72
2021/12/11 06:06:11;;;;;;;26.93;16.43;;;;;;;;;;5069970;28;20185;-71
2021/12/11 06:08:37;;;;;;;23.83;15.07;;;;;;;;;;5073358;28;20215;-72
2021/12/11 06:11:02;;;;;;;26.10;15.07;;;;;;;;;;5072878;28;20197;-72
2021/12/11 06:13:29;;;;;;;27.67;15.20;;;;;;;;;;5046103;28;20177;-72
2021/12/11 06:15:55;;;;;;;25.93;14.63;;;;;;;;;;5073250;28;20633;-72
2021/12/11 06:18:20;;;;;;;30.17;15.93;;;;;;;;;;5074901;28;20183;-72
2021/12/11 06:20:47;;;;;;;27.93;15.80;;;;;;;;;;5061341;28;20567;-72
2021/12/11 06:23:12;;;;;;;25.23;13.97;;;;;;;;;;5072104;28;20233;-72
2021/12/11 06:25:39;;;;;;;24.97;14.07;;;;;;;;;;5076630;28;20223;-72
2021/12/11 06:28:05;;;;;;;24.77;13.80;;;;;;;;;;5073818;28;20205;-72
2021/12/11 06:30:30;;;;;;;25.10;13.47;;;;;;;;;;5069622;28;20784;-72
2021/12/11 06:32:56;;;;;;;23.37;12.23;;;;;;;;;;5068689;28;20710;-71
2021/12/11 06:35:21;;;;;;;28.67;13.43;;;;;;;;;;5067076;28;20623;-72
2021/12/11 06:37:46;;;;;;;23.20;10.63;;;;;;;;;;5067736;28;20273;-72
2021/12/11 06:40:12;;;;;;;20.77;9.83;;;;;;;;;;5070258;28;20214;-71
2021/12/11 06:42:38;;;;;;;15.43;8.03;;;;;;;;;;5068704;28;20236;-72
2021/12/11 06:45:04;;;;;;;15.70;8.53;;;;;;;;;;5067471;28;20212;-74
2021/12/11 06:47:29;;;;;;;16.97;8.10;;;;;;;;;;5068059;28;20314;-72
2021/12/11 06:49:55;;;;;;;18.73;8.13;;;;;;;;;;5091904;28;20621;-73
2021/12/11 06:52:21;;;;;;;18.57;8.10;;;;;;;;;;5059942;28;20673;-72
2021/12/11 06:54:47;;;;;;;17.77;7.13;;;;;;;;;;5072611;28;20189;-71
2021/12/11 06:57:13;;;;;;;16.03;7.30;;;;;;;;;;5074494;28;20180;-72
2021/12/11 06:59:38;;;;;;;13.83;5.50;;;;;;;;;;5072007;28;20560;-71
2021/12/11 07:02:04;;;;;;;16.30;5.77;;;;;;;;;;5074794;28;20239;-71
2021/12/11 07:04:29;;;;;;;17.10;6.10;;;;;;;;;;5077478;28;20192;-71
2021/12/11 07:06:55;;;;;;;18.70;6.90;;;;;;;;;;5072002;28;20192;-72
2021/12/11 07:09:21;;;;;;;18.73;7.33;;;;;;;;;;5072038;28;20296;-71
2021/12/11 07:11:48;;;;;;;22.10;8.17;;;;;;;;;;5066320;28;20223;-72
2021/12/11 07:14:14;;;;;;;16.70;6.77;;;;;;;;;;5068618;28;20318;-71
2021/12/11 07:16:39;;;;;;;15.77;7.43;;;;;;;;;;5071974;28;20189;-72
2021/12/11 07:19:06;;;;;;;24.33;10.00;;;;;;;;;;5069479;28;21007;-72
2021/12/11 07:21:31;;;;;;;20.63;10.27;;;;;;;;;;5070959;28;20213;-73
2021/12/11 07:23:56;;;;;;;22.70;11.23;;;;;;;;;;5069268;28;20177;-71
2021/12/11 07:26:29;;;;;;;23.10;12.43;;;;;;;;;;5071401;28;20665;-71
2021/12/11 07:28:55;;;;;;;32.57;15.00;;;;;;;;;;5070878;28;20208;-71
2021/12/11 07:31:22;;;;;;;24.13;14.90;;;;;;;;;;5065388;28;20237;-72
2021/12/11 07:33:48;;;;;;;27.57;15.57;;;;;;;;;;5070690;28;20188;-72
2021/12/11 07:36:13;;;;;;;33.50;15.50;;;;;;;;;;5070911;28;20169;-72
2021/12/11 07:38:38;;;;;;;32.87;16.57;;;;;;;;;;5071366;28;20191;-71
2021/12/11 07:41:06;;;;;;;28.30;16.10;;;;;;;;;;5069643;28;20205;-71
2021/12/11 07:43:32;;;;;;;28.87;15.53;;;;;;;;;;5072903;28;20172;-72
2021/12/11 07:45:57;;;;;;;32.60;17.10;;;;;;;;;;5071664;28;20250;-72
2021/12/11 07:48:22;;;;;;;29.27;15.67;;;;;;;;;;5071100;28;20216;-72
2021/12/11 07:50:48;;;;;;;28.30;17.63;;;;;;;;;;5071352;28;20760;-72
2021/12/11 07:53:13;;;;;;;34.33;19.13;;;;;;;;;;5067481;28;20185;-71
2021/12/11 07:55:39;;;;;;;28.27;17.40;;;;;;;;;;5071094;28;20173;-71
2021/12/11 07:58:05;;;;;;;33.60;17.33;;;;;;;;;;5069269;28;20177;-71
2021/12/11 08:00:31;;;;;;;33.70;17.87;;;;;;;;;;5068861;28;20184;-71
2021/12/11 08:02:56;;;;;;;34.17;19.07;;;;;;;;;;5065148;28;20210;-71
2021/12/11 08:05:22;;;;;;;38.87;18.67;;;;;;;;;;5049398;28;20211;-71
2021/12/11 08:07:47;;;;;;;36.17;19.90;;;;;;;;;;5069782;28;20185;-70
2021/12/11 08:10:15;;;;;;;38.30;20.50;;;;;;;;;;5063725;28;20224;-71
2021/12/11 08:12:41;;;;;;;38.07;19.27;;;;;;;;;;5072254;28;20196;-72
2021/12/11 08:15:06;;;;;;;43.23;22.77;;;;;;;;;;5069348;28;20173;-71
2021/12/11 08:17:31;;;;;;;42.13;22.33;;;;;;;;;;5064610;28;20180;-71
2021/12/11 08:19:57;;;;;;;41.77;21.37;;;;;;;;;;5053111;28;20173;-72
2021/12/11 08:22:22;;;;;;;46.13;20.90;;;;;;;;;;5069344;28;20297;-71
2021/12/11 08:24:47;;;;;;;35.53;21.03;;;;;;;;;;5069307;28;20188;-71
2021/12/11 08:27:15;;;;;;;35.67;20.67;;;;;;;;;;5070712;28;20288;-71
2021/12/11 08:29:42;;;;;;;38.37;20.73;;;;;;;;;;5066382;28;20331;-72
2021/12/11 08:32:08;;;;;;;36.63;21.53;;;;;;;;;;5049710;28;20612;-73
2021/12/11 08:34:33;;;;;;;41.37;22.20;;;;;;;;;;5066069;28;20252;-71
2021/12/11 08:36:59;;;;;;;39.30;20.53;;;;;;;;;;5059521;28;20190;-73
2021/12/11 08:39:25;;;;;;;43.23;21.57;;;;;;;;;;5073003;28;20176;-73
2021/12/11 08:41:51;;;;;;;37.70;20.67;;;;;;;;;;5075510;28;20209;-72
2021/12/11 08:44:18;;;;;;;37.87;20.97;;;;;;;;;;5071246;28;20189;-71
2021/12/11 08:46:54;;;;;;;32.03;20.30;;;;;;;;;;5065057;28;20601;-73
2021/12/11 08:49:21;;;;;;;34.37;20.27;;;;;;;;;;5066031;28;20211;-72
2021/12/11 08:51:51;;;;;;;33.00;20.13;;;;;;;;;;5050324;28;20534;-72
2021/12/11 08:54:16;;;;;;;36.10;21.97;;;;;;;;;;5073499;28;20173;-72
2021/12/11 08:56:42;;;;;;;38.87;20.63;;;;;;;;;;5070213;28;20271;-74
2021/12/11 08:59:10;;;;;;;39.03;21.73;;;;;;;;;;5067993;28;20196;-72
2021/12/11 09:01:35;;;;;;;38.90;19.90;;;;;;;;;;5075398;28;20205;-72
2021/12/11 09:04:17;;;;;;;38.45;20.35;;;;;;;;;;5072269;28;20208;-72
2021/12/11 09:06:51;;;;;;;34.40;19.40;;;;;;;;;;5067009;28;20180;-71
2021/12/11 09:09:22;;;;;;;32.43;20.27;;;;;;;;;;5071645;28;20250;-71
2021/12/11 09:11:50;;;;;;;33.10;20.37;;;;;;;;;;5073894;28;20749;-72
2021/12/11 09:14:27;;;;;;;37.80;20.27;;;;;;;;;;5071300;28;20180;-73
2021/12/11 09:17:00;;;;;;;40.40;21.20;;;;;;;;;;5054234;28;20204;-72
2021/12/11 09:19:37;;;;;;;31.50;19.17;;;;;;;;;;5079512;28;20592;-72
2021/12/11 09:22:07;;;;;;;34.73;19.83;;;;;;;;;;5069693;28;20216;-72
2021/12/11 09:24:40;;;;;;;36.67;20.37;;;;;;;;;;5081313;28;20165;-72
2021/12/11 09:27:11;;;;;;;35.77;20.60;;;;;;;;;;5069651;28;20726;-72
2021/12/11 09:29:44;;;;;;;36.23;21.17;;;;;;;;;;5073240;28;20193;-71
2021/12/11 09:32:09;;;;;;;34.13;20.37;;;;;;;;;;5074045;28;20255;-72
2021/12/11 09:34:49;;;;;;;30.27;20.10;;;;;;;;;;5071646;28;20168;-73
2021/12/11 09:37:15;;;;;;;32.27;20.13;;;;;;;;;;5068832;28;20177;-72
2021/12/11 09:39:43;;;;;;;29.43;19.33;;;;;;;;;;5071685;28;20176;-72
2021/12/11 09:42:08;;;;;;;29.00;19.00;;;;;;;;;;5070894;28;20257;-72
2021/12/11 09:44:36;;;;;;;28.03;18.70;;;;;;;;;;5069317;28;20181;-73
2021/12/11 09:47:01;;;;;;;30.87;20.40;;;;;;;;;;5072064;28;20179;-73
2021/12/11 09:49:30;;;;;;;36.70;20.33;;;;;;;;;;5068242;28;20582;-72
2021/12/11 09:52:04;;;;;;;30.67;20.00;;;;;;;;;;5066751;28;20257;-72
2021/12/11 09:54:31;;;;;;;31.77;21.20;;;;;;;;;;5064299;28;20177;-72
2021/12/11 09:57:00;;;;;;;33.63;19.73;;;;;;;;;;5047145;28;20263;-73
2021/12/11 09:59:28;;;;;;;35.13;20.70;;;;;;;;;;5077776;28;20216;-72
2021/12/11 10:01:56;;;;;;;28.53;18.00;;;;;;;;;;5071487;28;20200;-72
2021/12/11 10:04:31;;;;;;;26.17;18.77;;;;;;;;;;5055772;28;20207;-72
2021/12/11 10:07:24;;;;;;;32.40;18.93;;;;;;;;;;5065620;28;20176;-73
2021/12/11 10:09:49;;;;;;;29.60;19.40;;;;;;;;;;5068933;28;20262;-72
2021/12/11 10:12:16;;;;;;;25.93;18.63;;;;;;;;;;5072639;28;20246;-72
2021/12/11 10:14:47;;;;;;;23.47;17.70;;;;;;;;;;5068270;28;20177;-71
2021/12/11 10:17:20;;;;;;;24.27;16.63;;;;;;;;;;5063097;28;20177;-71
2021/12/11 10:19:46;;;;;;;26.63;16.27;;;;;;;;;;5070194;28;20230;-71
2021/12/11 10:22:20;;;;;;;26.13;16.13;;;;;;;;;;5075057;28;20337;-71
2021/12/11 10:24:45;;;;;;;24.40;16.23;;;;;;;;;;5072707;28;20259;-72
2021/12/11 10:27:14;;;;;;;23.70;16.57;;;;;;;;;;5052829;28;20253;-72
2021/12/11 10:29:41;;;;;;;23.87;16.50;;;;;;;;;;5087905;28;20200;-72
2021/12/11 10:32:10;;;;;;;27.37;15.53;;;;;;;;;;5068852;28;20211;-71
2021/12/11 10:34:36;;;;;;;24.87;16.13;;;;;;;;;;5073086;28;20543;-70
2021/12/11 10:37:05;;;;;;;24.90;17.47;;;;;;;;;;5065941;28;20181;-71
2021/12/11 10:39:30;;;;;;;25.40;17.53;;;;;;;;;;5065987;28;20231;-71
2021/12/11 10:41:56;;;;;;;24.30;16.80;;;;;;;;;;5053219;28;20694;-71
2021/12/11 10:44:28;;;;;;;23.03;16.37;;;;;;;;;;5066427;28;20267;-72
2021/12/11 10:47:05;;;;;;;24.77;17.73;;;;;;;;;;5064306;28;20183;-72
2021/12/11 10:49:31;;;;;;;24.93;17.20;;;;;;;;;;5067634;28;20482;-72
2021/12/11 10:52:04;;;;;;;23.90;17.17;;;;;;;;;;5070972;28;20203;-70
2021/12/11 10:54:29;;;;;;;26.27;17.00;;;;;;;;;;5068685;28;20177;-70
2021/12/11 10:56:55;;;;;;;27.37;17.47;;;;;;;;;;5071828;28;20191;-71
2021/12/11 10:59:22;;;;;;;28.67;17.60;;;;;;;;;;5068702;28;20545;-71
2021/12/11 11:01:54;;;;;;;23.73;16.87;;;;;;;;;;5070764;28;20235;-71
2021/12/11 11:04:24;;;;;;;26.23;17.10;;;;;;;;;;5072383;28;20747;-72
2021/12/11 11:06:50;;;;;;;22.17;15.73;;;;;;;;;;5070185;28;20245;-71
2021/12/11 11:09:17;;;;;;;26.13;17.03;;;;;;;;;;5057713;28;20205;-71
2021/12/11 11:11:42;;;;;;;25.27;17.77;;;;;;;;;;5070283;28;20270;-71
2021/12/11 11:14:09;;;;;;;24.37;15.97;;;;;;;;;;5070168;28;20746;-71
2021/12/11 11:16:35;;;;;;;22.70;16.27;;;;;;;;;;5077744;28;20173;-70
2021/12/11 11:19:01;;;;;;;22.13;15.83;;;;;;;;;;5070200;28;20719;-71
2021/12/11 11:21:28;;;;;;;23.43;15.17;;;;;;;;;;5075740;28;20268;-71
2021/12/11 11:23:54;;;;;;;21.27;14.87;;;;;;;;;;5072251;28;20220;-73
2021/12/11 11:26:21;;;;;;;24.33;15.03;;;;;;;;;;5076217;28;20220;-71
2021/12/11 11:28:46;;;;;;;22.50;14.30;;;;;;;;;;5068975;28;20319;-71
2021/12/11 11:31:14;;;;;;;18.90;14.60;;;;;;;;;;5054042;28;20224;-71
2021/12/11 11:33:40;;;;;;;19.20;13.87;;;;;;;;;;5071782;28;20578;-74
2021/12/11 11:36:07;;;;;;;18.67;12.30;;;;;;;;;;5072603;28;20169;-71
2021/12/11 11:38:34;;;;;;;18.00;13.07;;;;;;;;;;5066541;28;20278;-73
2021/12/11 11:41:07;;;;;;;17.93;11.70;;;;;;;;;;5072039;28;20753;-71
2021/12/11 11:43:32;;;;;;;14.33;11.53;;;;;;;;;;5067030;28;20185;-71
2021/12/11 11:45:57;;;;;;;15.40;11.77;;;;;;;;;;5072253;28;20188;-71
2021/12/11 11:48:23;;;;;;;18.90;14.03;;;;;;;;;;5051334;28;20208;-74
2021/12/11 11:50:49;;;;;;;23.83;14.88;;;;;;;;;;5070559;28;20662;-73
2021/12/11 11:53:16;;;;;;;15.57;12.33;;;;;;;;;;5069005;28;20173;-72
2021/12/11 11:55:43;;;;;;;18.92;13.45;;;;;;;;;;5056233;28;20653;-71
2021/12/11 11:58:08;;;;;;;14.70;11.75;;;;;;;;;;5070430;28;20876;-71
2021/12/11 12:00:45;;;;;;;15.40;11.40;;;;;;;;;;5077422;28;20589;-71
2021/12/11 12:03:13;;;;;;;20.17;12.90;;;;;;;;;;5074733;28;20212;-71
2021/12/11 12:05:42;;;;;;;17.55;11.07;;;;;;;;;;5068259;28;20238;-71
2021/12/11 12:08:08;;;;;;;15.15;10.07;;;;;;;;;;5071898;28;20208;-72
2021/12/11 12:10:34;;;;;;;15.07;10.18;;;;;;;;;;5072118;28;20235;-72
2021/12/11 12:13:00;;;;;;;9.75;8.05;;;;;;;;;;5071745;28;20200;-73
2021/12/11 12:15:31;;;;;;;11.70;7.90;;;;;;;;;;5068119;28;20184;-73
2021/12/11 12:17:56;;;;;;;11.38;7.57;;;;;;;;;;5071582;28;20188;-71
2021/12/11 12:20:22;;;;;;;10.35;7.47;;;;;;;;;;5055378;28;20181;-73
2021/12/11 12:22:49;;;;;;;13.27;7.55;;;;;;;;;;5055008;28;20270;-71
2021/12/11 12:25:14;;;;;;;10.18;6.95;;;;;;;;;;5077761;28;20174;-73
2021/12/11 12:27:42;;;;;;;11.97;8.47;;;;;;;;;;5070080;28;20173;-73
2021/12/11 12:30:11;;;;;;;9.73;7.17;;;;;;;;;;5068836;28;20271;-74
2021/12/11 12:32:36;;;;;;;11.43;6.90;;;;;;;;;;5071133;28;20290;-72
2021/12/11 12:35:04;;;;;;;10.10;6.67;;;;;;;;;;5072987;28;20326;-74
2021/12/11 12:37:30;;;;;;;10.27;7.17;;;;;;;;;;5073161;28;20260;-73
2021/12/11 12:39:56;;;;;;;11.43;6.80;;;;;;;;;;5072063;28;20219;-73
2021/12/11 12:42:37;;;;;;;12.27;6.93;;;;;;;;;;5080678;28;20197;-73
2021/12/11 12:45:14;;;;;;;13.63;7.40;;;;;;;;;;5075309;28;20192;-73
2021/12/11 12:47:44;;;;;;;10.30;6.13;;;;;;;;;;5069699;28;20210;-73
2021/12/11 12:50:16;;;;;;;10.80;6.10;;;;;;;;;;5069365;28;20444;-73
2021/12/11 12:52:43;;;;;;;10.13;5.60;;;;;;;;;;5052698;28;20201;-73
2021/12/11 12:55:20;;;;;;;8.37;5.20;;;;;;;;;;5072102;28;20203;-72
2021/12/11 12:57:47;;;;;;;12.00;5.47;;;;;;;;;;5071050;28;20180;-72
2021/12/11 13:00:18;;;;;;;8.93;5.13;;;;;;;;;;5070454;28;20329;-73
2021/12/11 13:02:45;;;;;;;10.30;4.87;;;;;;;;;;5068261;28;20196;-72
2021/12/11 13:05:24;;;;;;;9.87;5.13;;;;;;;;;;5068217;28;20327;-71
2021/12/11 13:07:50;;;;;;;14.40;5.73;;;;;;;;;;5071068;28;20272;-73
2021/12/11 13:10:21;;;;;;;15.73;5.80;;;;;;;;;;5071372;28;20346;-72
2021/12/11 13:12:48;;;;;;;34.90;6.87;;;;;;;;;;5070832;28;20572;-72
2021/12/11 13:15:15;;;;;;;7.83;4.27;;;;;;;;;;5066717;28;20272;-72
2021/12/11 13:17:43;;;;;;;12.37;4.40;;;;;;;;;;5063993;28;20251;-73
2021/12/11 13:20:12;;;;;;;11.33;3.97;;;;;;;;;;5052497;28;20177;-71
2021/12/11 13:22:39;;;;;;;11.77;3.93;;;;;;;;;;5072398;28;20210;-72
2021/12/11 13:25:07;;;;;;;7.47;3.87;;;;;;;;;;5073932;28;20250;-71
2021/12/11 13:27:32;;;;;;;9.63;4.63;;;;;;;;;;5063295;28;20192;-71
2021/12/11 13:30:00;;;;;;;6.60;3.60;;;;;;;;;;5078921;28;20229;-72
2021/12/11 13:32:27;;;;;;;8.00;3.80;;;;;;;;;;5052052;28;20299;-71
2021/12/11 13:34:54;;;;;;;12.03;4.80;;;;;;;;;;5080239;28;20180;-71
2021/12/11 13:37:21;;;;;;;11.53;4.10;;;;;;;;;;5053043;28;20181;-71
2021/12/11 13:39:47;;;;;;;13.23;4.30;;;;;;;;;;5075722;28;20222;-73
2021/12/11 13:42:19;;;;;;;14.57;4.27;;;;;;;;;;5069717;28;20227;-72
2021/12/11 13:44:45;;;;;;;12.10;3.40;;;;;;;;;;5068008;28;20184;-71
2021/12/11 13:47:13;;;;;;;11.37;3.90;;;;;;;;;;5050952;28;20189;-71
2021/12/11 13:49:38;;;;;;;13.80;4.10;;;;;;;;;;5068856;28;20285;-71
2021/12/11 13:52:04;;;;;;;6.80;2.93;;;;;;;;;;5055256;28;20201;-71
2021/12/11 13:54:30;;;;;;;6.63;3.23;;;;;;;;;;5070882;28;20180;-72
2021/12/11 13:56:58;;;;;;;12.47;4.63;;;;;;;;;;5073260;28;20192;-71
2021/12/11 13:59:24;;;;;;;13.80;5.63;;;;;;;;;;5075117;28;20547;-71
2021/12/11 14:01:50;;;;;;;8.03;3.00;;;;;;;;;;5082179;28;20239;-71
2021/12/11 14:04:18;;;;;;;11.10;3.13;;;;;;;;;;5073188;28;20189;-71
2021/12/11 14:06:58;;;;;;;10.20;4.70;;;;;;;;;;5083137;28;20189;-71
2021/12/11 14:09:23;;;;;;;11.27;3.00;;;;;;;;;;5077965;28;20203;-72
2021/12/11 14:11:50;;;;;;;13.00;4.80;;;;;;;;;;5083694;28;20576;-72
2021/12/11 14:14:16;;;;;;;11.50;4.00;;;;;;;;;;5074806;28;20248;-72
2021/12/11 14:16:42;;;;;;;8.57;3.30;;;;;;;;;;5059029;28;20909;-72
2021/12/11 14:19:08;;;;;;;13.70;3.00;;;;;;;;;;5076150;28;20634;-72
2021/12/11 14:21:34;;;;;;;11.23;3.40;;;;;;;;;;5076626;28;20256;-71
2021/12/11 14:23:59;;;;;;;11.03;3.50;;;;;;;;;;5073634;28;20284;-71
2021/12/11 14:26:25;;;;;;;11.33;3.80;;;;;;;;;;5067458;28;20663;-71
2021/12/11 14:28:51;;;;;;;8.50;3.77;;;;;;;;;;5075282;28;20209;-72
2021/12/11 14:31:18;;;;;;;17.73;3.97;;;;;;;;;;5069318;28;20205;-68
2021/12/11 14:33:44;;;;;;;12.13;3.43;;;;;;;;;;5071852;28;20624;-69
2021/12/11 14:36:11;;;;;;;12.47;3.90;;;;;;;;;;5074894;28;20264;-69
2021/12/11 14:38:37;;;;;;;12.23;3.50;;;;;;;;;;5069458;28;20614;-68
2021/12/11 14:41:03;;;;;;;10.03;3.90;;;;;;;;;;5070797;28;20308;-67
2021/12/11 14:43:28;;;;;;;9.40;4.60;;;;;;;;;;5068902;28;20246;-68